San Vicente la Barquera

latitud = 43° 23' 40''N | longitud = 004° 23' 27''W
40 metros sobre el nivel del mar | datos mensuales

Fecha, hora, temperatura, viento dirección y velocidad, humedad y presión.

  • 21-01-2018 02:00:00 | 13.70°C | Oeste |15.00 km/h | 89.00% | 1021.70 hPa
  • 21-01-2018 01:00:00 | 13.80°C | Oeste |16.00 km/h | 89.00% | 1021.40 hPa
  • 21-01-2018 00:00:00 | 14.00°C | Oeste |18.00 km/h | 88.00% | 1021.10 hPa
  • 20-01-2018 23:00:00 | 14.10°C | Oeste |17.00 km/h | 88.00% | 1020.70 hPa
  • 20-01-2018 22:00:00 | 13.90°C | Oeste |12.00 km/h | 88.00% | 1020.40 hPa
  • 20-01-2018 21:00:00 | 14.00°C | Oeste |18.00 km/h | 88.00% | 1020.00 hPa
  • 20-01-2018 20:00:00 | 14.10°C | Oeste |24.00 km/h | 87.00% | 1019.40 hPa
  • 20-01-2018 19:00:00 | 15.40°C | Oeste |19.00 km/h | 78.00% | 1018.90 hPa
  • 20-01-2018 18:00:00 | 15.80°C | Oeste |23.00 km/h | 77.00% | 1018.30 hPa
  • 20-01-2018 17:00:00 | 15.70°C | Oeste |19.00 km/h | 77.00% | 1017.80 hPa
  • 20-01-2018 16:00:00 | 15.70°C | Oeste |8.00 km/h | 76.00% | 1017.20 hPa
  • 20-01-2018 15:00:00 | 18.50°C | Oeste |23.00 km/h | 60.00% | 1016.70 hPa
  • 20-01-2018 14:00:00 | 15.80°C | Oeste |15.00 km/h | 74.00% | 1017.10 hPa
  • 20-01-2018 13:00:00 | 16.50°C | Oeste |17.00 km/h | 70.00% | 1017.70 hPa
  • 20-01-2018 12:00:00 | 15.70°C | Oeste |20.00 km/h | 69.00% | 1018.10 hPa
  • 20-01-2018 11:00:00 | 11.70°C | Sudoeste |8.00 km/h | 71.00% | 1018.20 hPa
  • 20-01-2018 10:00:00 | 8.90°C | Sudoeste |10.00 km/h | 78.00% | 1018.40 hPa
  • 20-01-2018 09:00:00 | 8.40°C | Sudoeste |8.00 km/h | 82.00% | 1018.40 hPa
  • 20-01-2018 08:00:00 | 8.20°C | Sudoeste |8.00 km/h | 78.00% | 1018.70 hPa
  • 20-01-2018 07:00:00 | 8.20°C | Sudoeste |9.00 km/h | 77.00% | 1018.10 hPa
  • 20-01-2018 06:00:00 | 8.20°C | Sur |11.00 km/h | 82.00% | 1018.00 hPa
  • 20-01-2018 05:00:00 | 8.50°C | Sur |10.00 km/h | 82.00% | 1018.30 hPa
  • 20-01-2018 04:00:00 | 8.30°C | Sudoeste |10.00 km/h | 81.00% | 1019.10 hPa
  • 20-01-2018 03:00:00 | 8.20°C | Sur |11.00 km/h | 84.00% | 1020.00 hPa